sensor_id;sensor_type;location;lat;lon;timestamp;P1;durP1;ratioP1;P2;durP2;ratioP2
1378;SDS011;683;48.738;9.226;2023-07-29T00:01:58;3.40;;;3.00;;
1378;SDS011;683;48.738;9.226;2023-07-29T00:04:27;3.80;;;3.50;;
1378;SDS011;683;48.738;9.226;2023-07-29T00:06:54;4.77;;;3.23;;
1378;SDS011;683;48.738;9.226;2023-07-29T00:09:21;10.67;;;3.97;;
1378;SDS011;683;48.738;9.226;2023-07-29T00:11:51;3.70;;;3.40;;
1378;SDS011;683;48.738;9.226;2023-07-29T00:14:21;3.40;;;3.10;;
1378;SDS011;683;48.738;9.226;2023-07-29T00:16:48;3.07;;;2.77;;
1378;SDS011;683;48.738;9.226;2023-07-29T00:19:16;3.10;;;2.80;;
1378;SDS011;683;48.738;9.226;2023-07-29T00:21:44;4.30;;;3.40;;
1378;SDS011;683;48.738;9.226;2023-07-29T00:24:11;4.53;;;4.13;;
1378;SDS011;683;48.738;9.226;2023-07-29T00:26:38;5.77;;;3.87;;
1378;SDS011;683;48.738;9.226;2023-07-29T00:29:05;3.93;;;3.63;;
1378;SDS011;683;48.738;9.226;2023-07-29T00:31:33;3.73;;;3.23;;
1378;SDS011;683;48.738;9.226;2023-07-29T00:34:00;5.47;;;3.87;;
1378;SDS011;683;48.738;9.226;2023-07-29T00:36:27;6.93;;;4.23;;
1378;SDS011;683;48.738;9.226;2023-07-29T00:38:55;4.73;;;4.33;;
1378;SDS011;683;48.738;9.226;2023-07-29T00:41:22;4.10;;;3.53;;
1378;SDS011;683;48.738;9.226;2023-07-29T00:43:53;4.40;;;3.90;;
1378;SDS011;683;48.738;9.226;2023-07-29T00:46:20;4.20;;;3.80;;
1378;SDS011;683;48.738;9.226;2023-07-29T00:48:48;4.03;;;3.60;;
1378;SDS011;683;48.738;9.226;2023-07-29T00:51:15;5.40;;;4.27;;
1378;SDS011;683;48.738;9.226;2023-07-29T00:53:42;5.23;;;4.30;;
1378;SDS011;683;48.738;9.226;2023-07-29T00:56:11;3.90;;;3.60;;
1378;SDS011;683;48.738;9.226;2023-07-29T00:58:38;4.20;;;3.80;;
1378;SDS011;683;48.738;9.226;2023-07-29T01:01:05;3.50;;;3.20;;
1378;SDS011;683;48.738;9.226;2023-07-29T01:03:33;4.37;;;3.93;;
1378;SDS011;683;48.738;9.226;2023-07-29T01:06:05;4.40;;;3.57;;
1378;SDS011;683;48.738;9.226;2023-07-29T01:08:38;5.50;;;4.57;;
1378;SDS011;683;48.738;9.226;2023-07-29T01:11:22;4.53;;;4.13;;
1378;SDS011;683;48.738;9.226;2023-07-29T01:14:00;4.90;;;3.67;;
1378;SDS011;683;48.738;9.226;2023-07-29T01:16:39;4.30;;;3.53;;
1378;SDS011;683;48.738;9.226;2023-07-29T01:19:11;4.50;;;4.10;;
1378;SDS011;683;48.738;9.226;2023-07-29T01:21:49;5.87;;;4.23;;
1378;SDS011;683;48.738;9.226;2023-07-29T01:24:19;5.00;;;4.50;;
1378;SDS011;683;48.738;9.226;2023-07-29T01:26:46;5.60;;;4.50;;
1378;SDS011;683;48.738;9.226;2023-07-29T01:29:13;5.00;;;4.50;;
1378;SDS011;683;48.738;9.226;2023-07-29T01:31:43;4.93;;;4.43;;
1378;SDS011;683;48.738;9.226;2023-07-29T01:34:17;4.20;;;3.80;;
1378;SDS011;683;48.738;9.226;2023-07-29T01:36:51;4.50;;;4.10;;
1378;SDS011;683;48.738;9.226;2023-07-29T01:39:25;4.40;;;3.73;;
1378;SDS011;683;48.738;9.226;2023-07-29T01:41:54;4.67;;;3.90;;
1378;SDS011;683;48.738;9.226;2023-07-29T01:44:22;4.40;;;4.00;;
1378;SDS011;683;48.738;9.226;2023-07-29T01:46:49;4.67;;;4.27;;
1378;SDS011;683;48.738;9.226;2023-07-29T01:49:16;5.10;;;4.63;;
1378;SDS011;683;48.738;9.226;2023-07-29T01:51:43;4.93;;;4.43;;
1378;SDS011;683;48.738;9.226;2023-07-29T01:54:10;6.73;;;4.30;;
1378;SDS011;683;48.738;9.226;2023-07-29T01:56:39;5.63;;;4.20;;
1378;SDS011;683;48.738;9.226;2023-07-29T01:59:06;4.80;;;4.03;;
1378;SDS011;683;48.738;9.226;2023-07-29T02:01:33;7.03;;;5.40;;
1378;SDS011;683;48.738;9.226;2023-07-29T02:04:01;4.27;;;3.87;;
1378;SDS011;683;48.738;9.226;2023-07-29T02:06:28;7.23;;;3.80;;
1378;SDS011;683;48.738;9.226;2023-07-29T02:08:55;4.77;;;3.90;;
1378;SDS011;683;48.738;9.226;2023-07-29T02:11:22;4.93;;;4.30;;
1378;SDS011;683;48.738;9.226;2023-07-29T02:13:54;7.53;;;4.20;;
1378;SDS011;683;48.738;9.226;2023-07-29T02:16:22;4.23;;;3.63;;
1378;SDS011;683;48.738;9.226;2023-07-29T02:18:49;3.57;;;3.20;;
1378;SDS011;683;48.738;9.226;2023-07-29T02:21:17;3.43;;;3.10;;
1378;SDS011;683;48.738;9.226;2023-07-29T02:23:44;4.40;;;2.77;;
1378;SDS011;683;48.738;9.226;2023-07-29T02:26:11;3.50;;;3.20;;
1378;SDS011;683;48.738;9.226;2023-07-29T02:28:38;3.63;;;3.33;;
1378;SDS011;683;48.738;9.226;2023-07-29T02:31:12;3.20;;;2.77;;
1378;SDS011;683;48.738;9.226;2023-07-29T02:33:41;3.30;;;3.00;;
1378;SDS011;683;48.738;9.226;2023-07-29T02:36:08;4.00;;;3.43;;
1378;SDS011;683;48.738;9.226;2023-07-29T02:38:36;4.30;;;3.17;;
1378;SDS011;683;48.738;9.226;2023-07-29T02:41:03;4.13;;;3.23;;
1378;SDS011;683;48.738;9.226;2023-07-29T02:43:30;3.60;;;3.30;;
1378;SDS011;683;48.738;9.226;2023-07-29T02:45:57;2.93;;;2.67;;
1378;SDS011;683;48.738;9.226;2023-07-29T02:48:26;2.60;;;2.40;;
1378;SDS011;683;48.738;9.226;2023-07-29T02:50:53;3.30;;;3.10;;
1378;SDS011;683;48.738;9.226;2023-07-29T02:53:21;2.80;;;2.60;;
1378;SDS011;683;48.738;9.226;2023-07-29T02:55:48;3.77;;;2.70;;
1378;SDS011;683;48.738;9.226;2023-07-29T02:58:16;2.97;;;2.67;;
1378;SDS011;683;48.738;9.226;2023-07-29T03:00:43;3.30;;;3.00;;
1378;SDS011;683;48.738;9.226;2023-07-29T03:03:10;3.67;;;3.30;;
1378;SDS011;683;48.738;9.226;2023-07-29T03:05:39;6.63;;;3.50;;
1378;SDS011;683;48.738;9.226;2023-07-29T03:08:06;4.30;;;3.73;;
1378;SDS011;683;48.738;9.226;2023-07-29T03:10:34;4.50;;;3.53;;
1378;SDS011;683;48.738;9.226;2023-07-29T03:13:02;3.13;;;2.83;;
1378;SDS011;683;48.738;9.226;2023-07-29T03:15:29;4.00;;;3.10;;
1378;SDS011;683;48.738;9.226;2023-07-29T03:17:56;3.40;;;3.20;;
1378;SDS011;683;48.738;9.226;2023-07-29T03:20:24;6.40;;;4.10;;
1378;SDS011;683;48.738;9.226;2023-07-29T03:22:52;4.23;;;3.43;;
1378;SDS011;683;48.738;9.226;2023-07-29T03:25:19;4.00;;;3.63;;
1378;SDS011;683;48.738;9.226;2023-07-29T03:27:47;5.07;;;4.00;;
1378;SDS011;683;48.738;9.226;2023-07-29T03:30:14;3.30;;;3.00;;
1378;SDS011;683;48.738;9.226;2023-07-29T03:32:43;4.40;;;3.83;;
1378;SDS011;683;48.738;9.226;2023-07-29T03:35:11;3.57;;;3.27;;
1378;SDS011;683;48.738;9.226;2023-07-29T03:37:39;3.47;;;3.17;;
1378;SDS011;683;48.738;9.226;2023-07-29T03:40:08;4.07;;;3.43;;
1378;SDS011;683;48.738;9.226;2023-07-29T03:42:35;4.40;;;4.00;;
1378;SDS011;683;48.738;9.226;2023-07-29T03:45:03;3.70;;;3.40;;
1378;SDS011;683;48.738;9.226;2023-07-29T03:47:31;6.97;;;4.27;;
1378;SDS011;683;48.738;9.226;2023-07-29T03:49:58;4.80;;;4.07;;
1378;SDS011;683;48.738;9.226;2023-07-29T03:52:26;3.87;;;3.47;;
1378;SDS011;683;48.738;9.226;2023-07-29T03:54:53;4.43;;;4.03;;
1378;SDS011;683;48.738;9.226;2023-07-29T03:57:21;4.50;;;3.37;;
1378;SDS011;683;48.738;9.226;2023-07-29T03:59:48;3.30;;;3.00;;
1378;SDS011;683;48.738;9.226;2023-07-29T04:02:16;3.53;;;3.23;;
1378;SDS011;683;48.738;9.226;2023-07-29T04:04:43;3.50;;;3.20;;
1378;SDS011;683;48.738;9.226;2023-07-29T04:07:13;4.33;;;2.93;;
1378;SDS011;683;48.738;9.226;2023-07-29T04:09:40;3.10;;;2.80;;
1378;SDS011;683;48.738;9.226;2023-07-29T04:12:08;2.27;;;2.10;;
1378;SDS011;683;48.738;9.226;2023-07-29T04:14:37;3.40;;;3.10;;
1378;SDS011;683;48.738;9.226;2023-07-29T04:17:04;3.90;;;2.60;;
1378;SDS011;683;48.738;9.226;2023-07-29T04:19:31;3.27;;;2.97;;
1378;SDS011;683;48.738;9.226;2023-07-29T04:21:59;3.37;;;3.07;;
1378;SDS011;683;48.738;9.226;2023-07-29T04:24:26;2.70;;;2.50;;
1378;SDS011;683;48.738;9.226;2023-07-29T04:26:54;2.87;;;2.67;;
1378;SDS011;683;48.738;9.226;2023-07-29T04:29:21;3.07;;;2.67;;
1378;SDS011;683;48.738;9.226;2023-07-29T04:31:50;2.57;;;2.23;;
1378;SDS011;683;48.738;9.226;2023-07-29T04:34:17;3.30;;;3.00;;
1378;SDS011;683;48.738;9.226;2023-07-29T04:36:45;2.73;;;2.47;;
1378;SDS011;683;48.738;9.226;2023-07-29T04:39:12;3.60;;;3.30;;
1378;SDS011;683;48.738;9.226;2023-07-29T04:41:39;5.80;;;3.63;;
1378;SDS011;683;48.738;9.226;2023-07-29T04:44:07;3.27;;;3.07;;
1378;SDS011;683;48.738;9.226;2023-07-29T04:46:35;3.10;;;2.90;;
1378;SDS011;683;48.738;9.226;2023-07-29T04:49:04;3.00;;;2.80;;
1378;SDS011;683;48.738;9.226;2023-07-29T04:51:31;2.83;;;2.63;;
1378;SDS011;683;48.738;9.226;2023-07-29T04:53:58;3.23;;;2.93;;
1378;SDS011;683;48.738;9.226;2023-07-29T04:56:26;3.27;;;2.97;;
1378;SDS011;683;48.738;9.226;2023-07-29T04:58:53;3.60;;;3.30;;
1378;SDS011;683;48.738;9.226;2023-07-29T05:01:20;3.87;;;3.57;;
1378;SDS011;683;48.738;9.226;2023-07-29T05:03:47;3.90;;;3.50;;
1378;SDS011;683;48.738;9.226;2023-07-29T05:06:16;4.20;;;3.80;;
1378;SDS011;683;48.738;9.226;2023-07-29T05:08:43;3.53;;;3.23;;
1378;SDS011;683;48.738;9.226;2023-07-29T05:11:10;3.80;;;3.50;;
1378;SDS011;683;48.738;9.226;2023-07-29T05:13:37;6.13;;;3.73;;
1378;SDS011;683;48.738;9.226;2023-07-29T05:16:04;5.83;;;4.00;;
1378;SDS011;683;48.738;9.226;2023-07-29T05:18:32;3.67;;;3.20;;
1378;SDS011;683;48.738;9.226;2023-07-29T05:20:59;3.93;;;3.47;;
1378;SDS011;683;48.738;9.226;2023-07-29T05:23:28;4.10;;;3.73;;
1378;SDS011;683;48.738;9.226;2023-07-29T05:25:56;3.50;;;3.20;;
1378;SDS011;683;48.738;9.226;2023-07-29T05:28:23;4.70;;;4.00;;
1378;SDS011;683;48.738;9.226;2023-07-29T05:30:50;3.57;;;3.27;;
1378;SDS011;683;48.738;9.226;2023-07-29T05:33:18;4.07;;;3.70;;
1378;SDS011;683;48.738;9.226;2023-07-29T05:35:45;4.27;;;3.97;;
1378;SDS011;683;48.738;9.226;2023-07-29T05:38:13;4.90;;;3.80;;
1378;SDS011;683;48.738;9.226;2023-07-29T05:40:41;3.83;;;3.53;;
1378;SDS011;683;48.738;9.226;2023-07-29T05:43:09;5.00;;;4.10;;
1378;SDS011;683;48.738;9.226;2023-07-29T05:45:36;3.77;;;3.47;;
1378;SDS011;683;48.738;9.226;2023-07-29T05:48:04;4.23;;;3.83;;
1378;SDS011;683;48.738;9.226;2023-07-29T05:50:31;3.80;;;3.50;;
1378;SDS011;683;48.738;9.226;2023-07-29T05:52:58;5.23;;;4.73;;
1378;SDS011;683;48.738;9.226;2023-07-29T05:55:25;7.80;;;4.20;;
1378;SDS011;683;48.738;9.226;2023-07-29T05:57:54;3.60;;;3.20;;
1378;SDS011;683;48.738;9.226;2023-07-29T06:00:21;4.30;;;3.60;;
1378;SDS011;683;48.738;9.226;2023-07-29T06:02:48;3.87;;;3.47;;
1378;SDS011;683;48.738;9.226;2023-07-29T06:05:19;5.23;;;4.70;;
1378;SDS011;683;48.738;9.226;2023-07-29T06:07:46;6.27;;;4.70;;
1378;SDS011;683;48.738;9.226;2023-07-29T06:10:16;4.20;;;3.90;;
1378;SDS011;683;48.738;9.226;2023-07-29T06:12:44;3.83;;;3.53;;
1378;SDS011;683;48.738;9.226;2023-07-29T06:15:12;3.87;;;3.57;;
1378;SDS011;683;48.738;9.226;2023-07-29T06:17:41;9.23;;;3.53;;
1378;SDS011;683;48.738;9.226;2023-07-29T06:20:08;4.23;;;3.93;;
1378;SDS011;683;48.738;9.226;2023-07-29T06:22:36;3.87;;;3.57;;
1378;SDS011;683;48.738;9.226;2023-07-29T06:25:04;4.83;;;3.47;;
1378;SDS011;683;48.738;9.226;2023-07-29T06:27:31;3.70;;;3.30;;
1378;SDS011;683;48.738;9.226;2023-07-29T06:29:58;3.57;;;2.93;;
1378;SDS011;683;48.738;9.226;2023-07-29T06:32:27;2.60;;;2.40;;
1378;SDS011;683;48.738;9.226;2023-07-29T06:34:54;4.30;;;3.50;;
1378;SDS011;683;48.738;9.226;2023-07-29T06:37:21;6.73;;;3.73;;
1378;SDS011;683;48.738;9.226;2023-07-29T06:39:49;3.60;;;3.30;;
1378;SDS011;683;48.738;9.226;2023-07-29T06:42:16;3.30;;;2.43;;
1378;SDS011;683;48.738;9.226;2023-07-29T06:44:43;3.13;;;2.80;;
1378;SDS011;683;48.738;9.226;2023-07-29T06:47:11;3.43;;;2.77;;
1378;SDS011;683;48.738;9.226;2023-07-29T06:49:40;2.83;;;2.57;;
1378;SDS011;683;48.738;9.226;2023-07-29T06:52:07;2.50;;;2.30;;
1378;SDS011;683;48.738;9.226;2023-07-29T06:54:34;2.87;;;2.67;;
1378;SDS011;683;48.738;9.226;2023-07-29T06:57:01;2.63;;;2.43;;
1378;SDS011;683;48.738;9.226;2023-07-29T06:59:29;2.77;;;2.57;;
1378;SDS011;683;48.738;9.226;2023-07-29T07:01:56;2.90;;;2.70;;
1378;SDS011;683;48.738;9.226;2023-07-29T07:04:25;2.97;;;2.77;;
1378;SDS011;683;48.738;9.226;2023-07-29T07:06:53;3.20;;;2.97;;
1378;SDS011;683;48.738;9.226;2023-07-29T07:09:21;3.93;;;3.60;;
1378;SDS011;683;48.738;9.226;2023-07-29T07:11:48;4.30;;;4.00;;
1378;SDS011;683;48.738;9.226;2023-07-29T07:14:15;4.27;;;3.60;;
1378;SDS011;683;48.738;9.226;2023-07-29T07:16:42;4.00;;;3.37;;
1378;SDS011;683;48.738;9.226;2023-07-29T07:19:10;4.03;;;3.07;;
1378;SDS011;683;48.738;9.226;2023-07-29T07:21:37;5.40;;;3.17;;
1378;SDS011;683;48.738;9.226;2023-07-29T07:24:07;8.30;;;3.60;;
1378;SDS011;683;48.738;9.226;2023-07-29T07:26:34;4.90;;;4.50;;
1378;SDS011;683;48.738;9.226;2023-07-29T07:29:01;4.10;;;3.70;;
1378;SDS011;683;48.738;9.226;2023-07-29T07:31:28;3.70;;;3.40;;
1378;SDS011;683;48.738;9.226;2023-07-29T07:33:59;4.57;;;4.17;;
1378;SDS011;683;48.738;9.226;2023-07-29T07:36:27;4.10;;;3.73;;
1378;SDS011;683;48.738;9.226;2023-07-29T07:38:54;4.30;;;3.90;;
1378;SDS011;683;48.738;9.226;2023-07-29T07:41:25;5.30;;;3.47;;
1378;SDS011;683;48.738;9.226;2023-07-29T07:43:53;3.47;;;3.17;;
1378;SDS011;683;48.738;9.226;2023-07-29T07:46:20;3.30;;;3.07;;
1378;SDS011;683;48.738;9.226;2023-07-29T07:48:47;4.00;;;3.70;;
1378;SDS011;683;48.738;9.226;2023-07-29T07:51:14;3.53;;;3.20;;
1378;SDS011;683;48.738;9.226;2023-07-29T07:53:41;2.63;;;2.43;;
1378;SDS011;683;48.738;9.226;2023-07-29T07:56:08;3.43;;;2.50;;
1378;SDS011;683;48.738;9.226;2023-07-29T07:58:37;2.93;;;2.73;;
1378;SDS011;683;48.738;9.226;2023-07-29T08:01:05;4.03;;;2.70;;
1378;SDS011;683;48.738;9.226;2023-07-29T08:03:33;2.30;;;2.10;;
1378;SDS011;683;48.738;9.226;2023-07-29T08:06:01;2.70;;;2.50;;
1378;SDS011;683;48.738;9.226;2023-07-29T08:08:29;3.30;;;2.30;;
1378;SDS011;683;48.738;9.226;2023-07-29T08:10:56;3.70;;;2.63;;
1378;SDS011;683;48.738;9.226;2023-07-29T08:13:24;3.13;;;2.40;;
1378;SDS011;683;48.738;9.226;2023-07-29T08:15:52;2.93;;;2.70;;
1378;SDS011;683;48.738;9.226;2023-07-29T08:18:20;4.17;;;2.50;;
1378;SDS011;683;48.738;9.226;2023-07-29T08:20:53;2.70;;;2.50;;
1378;SDS011;683;48.738;9.226;2023-07-29T08:23:23;2.97;;;2.77;;
1378;SDS011;683;48.738;9.226;2023-07-29T08:25:52;3.20;;;3.00;;
1378;SDS011;683;48.738;9.226;2023-07-29T08:28:21;5.80;;;2.67;;
1378;SDS011;683;48.738;9.226;2023-07-29T08:30:49;3.37;;;3.07;;
1378;SDS011;683;48.738;9.226;2023-07-29T08:33:19;3.00;;;2.43;;
1378;SDS011;683;48.738;9.226;2023-07-29T08:35:46;3.67;;;2.20;;
1378;SDS011;683;48.738;9.226;2023-07-29T08:38:13;3.10;;;2.80;;
1378;SDS011;683;48.738;9.226;2023-07-29T08:40:42;3.37;;;2.47;;
1378;SDS011;683;48.738;9.226;2023-07-29T08:43:12;2.50;;;2.30;;
1378;SDS011;683;48.738;9.226;2023-07-29T08:45:43;2.47;;;2.27;;
1378;SDS011;683;48.738;9.226;2023-07-29T08:48:11;3.00;;;2.80;;
1378;SDS011;683;48.738;9.226;2023-07-29T08:50:48;2.50;;;2.30;;
1378;SDS011;683;48.738;9.226;2023-07-29T08:53:16;2.67;;;2.47;;
1378;SDS011;683;48.738;9.226;2023-07-29T08:55:44;4.93;;;2.93;;
1378;SDS011;683;48.738;9.226;2023-07-29T08:58:11;2.20;;;2.03;;
1378;SDS011;683;48.738;9.226;2023-07-29T09:00:38;2.93;;;2.30;;
1378;SDS011;683;48.738;9.226;2023-07-29T09:03:06;2.43;;;2.23;;
1378;SDS011;683;48.738;9.226;2023-07-29T09:05:33;2.20;;;2.10;;
1378;SDS011;683;48.738;9.226;2023-07-29T09:08:03;3.00;;;2.23;;
1378;SDS011;683;48.738;9.226;2023-07-29T09:10:34;3.00;;;2.53;;
1378;SDS011;683;48.738;9.226;2023-07-29T09:13:04;2.50;;;2.30;;
1378;SDS011;683;48.738;9.226;2023-07-29T09:15:32;3.63;;;2.83;;
1378;SDS011;683;48.738;9.226;2023-07-29T09:18:08;2.87;;;2.57;;
1378;SDS011;683;48.738;9.226;2023-07-29T09:20:36;2.97;;;2.60;;
1378;SDS011;683;48.738;9.226;2023-07-29T09:23:07;2.47;;;2.27;;
1378;SDS011;683;48.738;9.226;2023-07-29T09:25:35;2.60;;;2.40;;
1378;SDS011;683;48.738;9.226;2023-07-29T09:28:09;2.80;;;2.60;;
1378;SDS011;683;48.738;9.226;2023-07-29T09:30:37;2.23;;;1.90;;
1378;SDS011;683;48.738;9.226;2023-07-29T09:33:06;3.53;;;3.23;;
1378;SDS011;683;48.738;9.226;2023-07-29T09:35:34;2.13;;;2.03;;
1378;SDS011;683;48.738;9.226;2023-07-29T09:38:03;4.20;;;2.13;;
1378;SDS011;683;48.738;9.226;2023-07-29T09:40:35;2.03;;;1.83;;
1378;SDS011;683;48.738;9.226;2023-07-29T09:43:04;2.43;;;2.10;;
1378;SDS011;683;48.738;9.226;2023-07-29T09:45:32;1.90;;;1.80;;
1378;SDS011;683;48.738;9.226;2023-07-29T09:48:01;1.67;;;1.57;;
1378;SDS011;683;48.738;9.226;2023-07-29T09:50:30;1.83;;;1.73;;
1378;SDS011;683;48.738;9.226;2023-07-29T09:52:58;2.10;;;1.90;;
1378;SDS011;683;48.738;9.226;2023-07-29T09:55:32;1.33;;;1.23;;
1378;SDS011;683;48.738;9.226;2023-07-29T09:58:00;2.03;;;1.83;;
1378;SDS011;683;48.738;9.226;2023-07-29T10:00:33;2.60;;;1.90;;
1378;SDS011;683;48.738;9.226;2023-07-29T10:03:01;3.20;;;2.10;;
1378;SDS011;683;48.738;9.226;2023-07-29T10:05:28;2.20;;;1.63;;
1378;SDS011;683;48.738;9.226;2023-07-29T10:07:57;2.17;;;1.77;;
1378;SDS011;683;48.738;9.226;2023-07-29T10:10:24;1.90;;;1.80;;
1378;SDS011;683;48.738;9.226;2023-07-29T10:12:54;3.10;;;1.87;;
1378;SDS011;683;48.738;9.226;2023-07-29T10:15:23;2.13;;;1.93;;
1378;SDS011;683;48.738;9.226;2023-07-29T10:17:51;2.00;;;1.90;;
1378;SDS011;683;48.738;9.226;2023-07-29T10:20:19;2.30;;;2.10;;
1378;SDS011;683;48.738;9.226;2023-07-29T10:22:48;2.80;;;2.30;;
1378;SDS011;683;48.738;9.226;2023-07-29T10:25:17;1.80;;;1.50;;
1378;SDS011;683;48.738;9.226;2023-07-29T10:27:55;1.90;;;1.80;;
1378;SDS011;683;48.738;9.226;2023-07-29T10:30:24;3.20;;;2.13;;
1378;SDS011;683;48.738;9.226;2023-07-29T10:32:51;2.13;;;1.97;;
1378;SDS011;683;48.738;9.226;2023-07-29T10:35:19;2.10;;;1.90;;
1378;SDS011;683;48.738;9.226;2023-07-29T10:37:46;2.73;;;2.10;;
1378;SDS011;683;48.738;9.226;2023-07-29T10:40:16;2.50;;;2.03;;
1378;SDS011;683;48.738;9.226;2023-07-29T10:45:36;2.57;;;2.10;;
1378;SDS011;683;48.738;9.226;2023-07-29T10:48:05;2.00;;;1.80;;
1378;SDS011;683;48.738;9.226;2023-07-29T10:50:33;2.20;;;2.00;;
1378;SDS011;683;48.738;9.226;2023-07-29T10:53:01;2.03;;;1.83;;
1378;SDS011;683;48.738;9.226;2023-07-29T10:55:29;2.40;;;2.20;;
1378;SDS011;683;48.738;9.226;2023-07-29T10:58:06;1.83;;;1.73;;
1378;SDS011;683;48.738;9.226;2023-07-29T11:00:34;1.80;;;1.70;;
1378;SDS011;683;48.738;9.226;2023-07-29T11:03:03;1.97;;;1.87;;
1378;SDS011;683;48.738;9.226;2023-07-29T11:05:45;1.63;;;1.53;;
1378;SDS011;683;48.738;9.226;2023-07-29T11:08:18;2.00;;;1.90;;
1378;SDS011;683;48.738;9.226;2023-07-29T11:11:03;1.90;;;1.80;;
1378;SDS011;683;48.738;9.226;2023-07-29T11:13:33;2.13;;;1.90;;
1378;SDS011;683;48.738;9.226;2023-07-29T11:16:01;1.73;;;1.63;;
1378;SDS011;683;48.738;9.226;2023-07-29T11:18:29;2.07;;;1.93;;
1378;SDS011;683;48.738;9.226;2023-07-29T11:21:01;2.17;;;1.97;;
1378;SDS011;683;48.738;9.226;2023-07-29T11:23:29;3.40;;;2.00;;
1378;SDS011;683;48.738;9.226;2023-07-29T11:25:58;1.93;;;1.83;;
1378;SDS011;683;48.738;9.226;2023-07-29T11:28:25;2.13;;;2.00;;
1378;SDS011;683;48.738;9.226;2023-07-29T11:30:54;1.97;;;1.87;;
1378;SDS011;683;48.738;9.226;2023-07-29T11:33:24;1.90;;;1.80;;
1378;SDS011;683;48.738;9.226;2023-07-29T11:35:53;1.90;;;1.80;;
1378;SDS011;683;48.738;9.226;2023-07-29T11:38:21;1.53;;;1.43;;
1378;SDS011;683;48.738;9.226;2023-07-29T11:40:56;2.13;;;1.93;;
1378;SDS011;683;48.738;9.226;2023-07-29T11:43:24;2.20;;;2.00;;
1378;SDS011;683;48.738;9.226;2023-07-29T11:45:52;2.30;;;1.80;;
1378;SDS011;683;48.738;9.226;2023-07-29T11:48:27;2.87;;;2.57;;
1378;SDS011;683;48.738;9.226;2023-07-29T11:50:55;2.00;;;1.80;;
1378;SDS011;683;48.738;9.226;2023-07-29T11:53:25;2.30;;;2.20;;
1378;SDS011;683;48.738;9.226;2023-07-29T11:55:54;2.57;;;2.37;;
1378;SDS011;683;48.738;9.226;2023-07-29T11:58:23;2.47;;;2.27;;
1378;SDS011;683;48.738;9.226;2023-07-29T12:00:51;1.70;;;1.60;;
1378;SDS011;683;48.738;9.226;2023-07-29T12:03:18;2.00;;;1.90;;
1378;SDS011;683;48.738;9.226;2023-07-29T12:05:47;2.20;;;2.00;;
1378;SDS011;683;48.738;9.226;2023-07-29T12:08:15;2.60;;;2.40;;
1378;SDS011;683;48.738;9.226;2023-07-29T12:10:42;2.60;;;2.40;;
1378;SDS011;683;48.738;9.226;2023-07-29T12:13:09;4.10;;;2.20;;
1378;SDS011;683;48.738;9.226;2023-07-29T12:15:37;2.53;;;2.33;;
1378;SDS011;683;48.738;9.226;2023-07-29T12:18:06;2.33;;;2.13;;
1378;SDS011;683;48.738;9.226;2023-07-29T12:20:33;2.17;;;2.07;;
1378;SDS011;683;48.738;9.226;2023-07-29T12:23:02;2.87;;;2.47;;
1378;SDS011;683;48.738;9.226;2023-07-29T12:25:31;1.97;;;1.77;;
1378;SDS011;683;48.738;9.226;2023-07-29T12:28:01;3.20;;;2.90;;
1378;SDS011;683;48.738;9.226;2023-07-29T12:30:32;2.40;;;2.20;;
1378;SDS011;683;48.738;9.226;2023-07-29T12:33:00;2.00;;;1.90;;
1378;SDS011;683;48.738;9.226;2023-07-29T12:35:33;2.67;;;2.10;;
1378;SDS011;683;48.738;9.226;2023-07-29T12:38:06;2.97;;;2.33;;
1378;SDS011;683;48.738;9.226;2023-07-29T12:40:37;1.90;;;1.80;;
1378;SDS011;683;48.738;9.226;2023-07-29T12:43:04;2.13;;;1.93;;
1378;SDS011;683;48.738;9.226;2023-07-29T12:45:35;2.67;;;2.03;;
1378;SDS011;683;48.738;9.226;2023-07-29T12:48:05;1.97;;;1.77;;
1378;SDS011;683;48.738;9.226;2023-07-29T12:50:32;1.70;;;1.60;;
1378;SDS011;683;48.738;9.226;2023-07-29T12:52:59;2.40;;;2.20;;
1378;SDS011;683;48.738;9.226;2023-07-29T12:55:28;2.10;;;1.90;;
1378;SDS011;683;48.738;9.226;2023-07-29T12:57:55;2.27;;;1.80;;
1378;SDS011;683;48.738;9.226;2023-07-29T13:00:23;2.20;;;2.00;;
1378;SDS011;683;48.738;9.226;2023-07-29T13:02:50;1.97;;;1.87;;
1378;SDS011;683;48.738;9.226;2023-07-29T13:05:18;2.30;;;2.10;;
1378;SDS011;683;48.738;9.226;2023-07-29T13:07:45;2.00;;;1.90;;
1378;SDS011;683;48.738;9.226;2023-07-29T13:10:13;8.63;;;2.00;;
1378;SDS011;683;48.738;9.226;2023-07-29T13:12:41;2.30;;;2.10;;
1378;SDS011;683;48.738;9.226;2023-07-29T13:15:08;2.80;;;2.30;;
1378;SDS011;683;48.738;9.226;2023-07-29T13:17:36;2.43;;;1.90;;
1378;SDS011;683;48.738;9.226;2023-07-29T13:20:05;5.07;;;2.03;;
1378;SDS011;683;48.738;9.226;2023-07-29T13:22:34;4.20;;;1.90;;
1378;SDS011;683;48.738;9.226;2023-07-29T13:25:01;2.07;;;1.97;;
1378;SDS011;683;48.738;9.226;2023-07-29T13:27:30;2.20;;;2.00;;
1378;SDS011;683;48.738;9.226;2023-07-29T13:29:59;2.40;;;2.20;;
1378;SDS011;683;48.738;9.226;2023-07-29T13:32:26;2.17;;;1.80;;
1378;SDS011;683;48.738;9.226;2023-07-29T13:34:53;2.30;;;2.10;;
1378;SDS011;683;48.738;9.226;2023-07-29T13:37:20;2.23;;;2.03;;
1378;SDS011;683;48.738;9.226;2023-07-29T13:39:49;1.90;;;1.80;;
1378;SDS011;683;48.738;9.226;2023-07-29T13:42:16;2.23;;;2.00;;
1378;SDS011;683;48.738;9.226;2023-07-29T13:44:43;3.13;;;1.87;;
1378;SDS011;683;48.738;9.226;2023-07-29T13:47:12;1.60;;;1.50;;
1378;SDS011;683;48.738;9.226;2023-07-29T13:49:39;2.57;;;2.33;;
1378;SDS011;683;48.738;9.226;2023-07-29T13:52:06;2.07;;;1.97;;
1378;SDS011;683;48.738;9.226;2023-07-29T13:54:34;2.00;;;1.90;;
1378;SDS011;683;48.738;9.226;2023-07-29T13:57:01;2.30;;;2.00;;
1378;SDS011;683;48.738;9.226;2023-07-29T13:59:28;2.13;;;2.00;;
1378;SDS011;683;48.738;9.226;2023-07-29T14:01:55;1.80;;;1.70;;
1378;SDS011;683;48.738;9.226;2023-07-29T14:04:24;2.40;;;2.13;;
1378;SDS011;683;48.738;9.226;2023-07-29T14:06:51;2.33;;;2.13;;
1378;SDS011;683;48.738;9.226;2023-07-29T14:09:18;1.83;;;1.73;;
1378;SDS011;683;48.738;9.226;2023-07-29T14:11:45;1.87;;;1.77;;
1378;SDS011;683;48.738;9.226;2023-07-29T14:14:12;2.13;;;1.97;;
1378;SDS011;683;48.738;9.226;2023-07-29T14:16:39;2.50;;;2.30;;
1378;SDS011;683;48.738;9.226;2023-07-29T14:19:06;2.10;;;1.90;;
1378;SDS011;683;48.738;9.226;2023-07-29T14:21:35;2.07;;;1.87;;
1378;SDS011;683;48.738;9.226;2023-07-29T14:24:02;2.50;;;2.30;;
1378;SDS011;683;48.738;9.226;2023-07-29T14:26:29;1.67;;;1.57;;
1378;SDS011;683;48.738;9.226;2023-07-29T14:28:56;1.83;;;1.73;;
1378;SDS011;683;48.738;9.226;2023-07-29T14:31:23;2.73;;;1.93;;
1378;SDS011;683;48.738;9.226;2023-07-29T14:33:50;2.57;;;2.37;;
1378;SDS011;683;48.738;9.226;2023-07-29T14:36:17;1.70;;;1.60;;
1378;SDS011;683;48.738;9.226;2023-07-29T14:38:46;1.90;;;1.70;;
1378;SDS011;683;48.738;9.226;2023-07-29T14:41:13;2.07;;;1.97;;
1378;SDS011;683;48.738;9.226;2023-07-29T14:43:40;2.30;;;2.20;;
1378;SDS011;683;48.738;9.226;2023-07-29T14:46:07;2.17;;;1.97;;
1378;SDS011;683;48.738;9.226;2023-07-29T14:48:35;2.93;;;2.27;;
1378;SDS011;683;48.738;9.226;2023-07-29T14:51:02;2.60;;;2.40;;
1378;SDS011;683;48.738;9.226;2023-07-29T14:53:29;3.43;;;2.30;;
1378;SDS011;683;48.738;9.226;2023-07-29T14:55:57;1.80;;;1.70;;
1378;SDS011;683;48.738;9.226;2023-07-29T14:58:27;2.20;;;2.00;;
1378;SDS011;683;48.738;9.226;2023-07-29T15:00:57;2.67;;;1.80;;
1378;SDS011;683;48.738;9.226;2023-07-29T15:03:24;2.40;;;2.20;;
1378;SDS011;683;48.738;9.226;2023-07-29T15:05:52;2.63;;;2.43;;
1378;SDS011;683;48.738;9.226;2023-07-29T15:08:20;2.33;;;2.10;;
1378;SDS011;683;48.738;9.226;2023-07-29T15:10:48;2.37;;;2.17;;
1378;SDS011;683;48.738;9.226;2023-07-29T15:13:16;3.10;;;2.80;;
1378;SDS011;683;48.738;9.226;2023-07-29T15:15:43;2.73;;;2.53;;
1378;SDS011;683;48.738;9.226;2023-07-29T15:18:11;3.87;;;2.30;;
1378;SDS011;683;48.738;9.226;2023-07-29T15:20:38;2.50;;;2.30;;
1378;SDS011;683;48.738;9.226;2023-07-29T15:23:05;2.97;;;2.27;;
1378;SDS011;683;48.738;9.226;2023-07-29T15:25:32;2.10;;;2.00;;
1378;SDS011;683;48.738;9.226;2023-07-29T15:27:59;2.23;;;2.03;;
1378;SDS011;683;48.738;9.226;2023-07-29T15:30:28;2.30;;;1.90;;
1378;SDS011;683;48.738;9.226;2023-07-29T15:32:55;2.10;;;1.90;;
1378;SDS011;683;48.738;9.226;2023-07-29T15:35:22;2.60;;;2.40;;
1378;SDS011;683;48.738;9.226;2023-07-29T15:37:49;3.10;;;2.47;;
1378;SDS011;683;48.738;9.226;2023-07-29T15:40:17;3.40;;;3.10;;